createdAt,value
2022-09-28T00:00:14.430Z,92.21
2022-09-28T00:02:43.715Z,89.60
2022-09-28T00:05:13.697Z,91.60
2022-09-28T00:07:44.844Z,86.97
2022-09-28T00:10:14.007Z,94.79
2022-09-28T00:12:43.316Z,92.04
2022-09-28T00:15:12.901Z,92.99
2022-09-28T00:17:44.936Z,97.33
2022-09-28T00:20:14.496Z,94.73
2022-09-28T00:22:45.321Z,95.18
2022-09-28T00:25:16.976Z,94.92
2022-09-28T00:27:51.762Z,92.19
2022-09-28T00:30:21.224Z,92.03
2022-09-28T00:32:50.582Z,92.38
2022-09-28T00:35:19.757Z,90.04
2022-09-28T00:37:52.231Z,90.80
2022-09-28T00:40:21.514Z,98.09
2022-09-28T00:42:50.781Z,94.74
2022-09-28T00:45:20.053Z,94.64
2022-09-28T00:47:52.238Z,90.45
2022-09-28T00:50:28.365Z,89.90
2022-09-28T00:53:01.402Z,91.24
2022-09-28T00:55:36.078Z,94.11
2022-09-28T00:58:08.628Z,90.49
2022-09-28T01:00:40.639Z,91.18
2022-09-28T01:03:10.958Z,85.85
2022-09-28T01:05:41.594Z,91.46
2022-09-28T01:08:13.572Z,95.20
2022-09-28T01:10:43.642Z,94.81
2022-09-28T01:13:13.504Z,88.73
2022-09-28T01:15:48.595Z,88.13
2022-09-28T01:18:23.905Z,87.84
2022-09-28T01:21:05.421Z,84.80
2022-09-28T01:24:11.068Z,88.90
2022-09-28T01:27:07.681Z,89.09
2022-09-28T01:29:53.542Z,87.61
2022-09-28T01:32:32.069Z,87.47
2022-09-28T01:35:06.725Z,88.82
2022-09-28T01:37:41.911Z,90.59
2022-09-28T01:40:12.149Z,84.05
2022-09-28T01:42:45.455Z,87.94
2022-09-28T01:45:18.613Z,88.76
2022-09-28T01:47:51.371Z,90.49
2022-09-28T01:50:24.543Z,89.28
2022-09-28T01:52:55.948Z,89.65
2022-09-28T01:55:30.726Z,87.60
2022-09-28T01:58:04.567Z,90.33
2022-09-28T02:00:34.944Z,90.87
2022-09-28T02:03:08.499Z,90.33
2022-09-28T02:05:40.576Z,89.17
2022-09-28T02:08:13.101Z,91.61
2022-09-28T02:10:45.956Z,89.07
2022-09-28T02:13:20.562Z,89.79
2022-09-28T02:15:55.352Z,91.41
2022-09-28T02:18:24.792Z,93.02
2022-09-28T02:21:00.444Z,91.87
2022-09-28T02:23:31.265Z,90.96
2022-09-28T02:26:04.920Z,88.75
2022-09-28T02:28:35.634Z,88.62
2022-09-28T02:31:05.377Z,91.02
2022-09-28T02:33:37.855Z,87.87
2022-09-28T02:36:07.808Z,89.04
2022-09-28T02:38:38.680Z,88.41
2022-09-28T02:41:13.595Z,84.45
2022-09-28T02:43:55.216Z,89.73
2022-09-28T02:46:31.407Z,90.97
2022-09-28T02:49:24.361Z,92.91
2022-09-28T02:52:23.420Z,89.83
2022-09-28T02:55:20.943Z,86.57
2022-09-28T02:58:09.849Z,86.95
2022-09-28T03:00:46.684Z,92.33
2022-09-28T03:03:20.846Z,91.42
2022-09-28T03:06:01.385Z,90.98
2022-09-28T03:08:35.676Z,86.40
2022-09-28T03:11:07.119Z,84.11
2022-09-28T03:13:37.706Z,85.00
2022-09-28T03:16:13.812Z,86.23
2022-09-28T03:18:43.500Z,85.93
2022-09-28T03:21:14.089Z,82.00
2022-09-28T03:23:45.230Z,83.07
2022-09-28T03:26:16.940Z,84.93
2022-09-28T03:28:46.649Z,86.35
2022-09-28T03:31:20.954Z,88.50
2022-09-28T03:33:50.722Z,85.86
2022-09-28T03:36:20.190Z,94.67
2022-09-28T03:38:49.798Z,89.94
2022-09-28T03:41:20.066Z,91.22
2022-09-28T03:43:53.007Z,84.94
2022-09-28T03:46:23.940Z,86.38
2022-09-28T03:48:53.606Z,86.64
2022-09-28T03:51:22.827Z,85.98
2022-09-28T03:53:52.355Z,87.15
2022-09-28T03:56:22.061Z,83.76
2022-09-28T03:58:51.451Z,86.40
2022-09-28T04:01:22.496Z,87.40
2022-09-28T04:03:56.058Z,85.72
2022-09-28T04:06:25.786Z,86.37
2022-09-28T04:08:55.486Z,86.11
2022-09-28T04:11:25.488Z,89.75
2022-09-28T04:13:54.966Z,86.27
2022-09-28T04:16:26.422Z,82.82
2022-09-28T04:18:56.738Z,84.61
2022-09-28T04:21:26.750Z,87.63
2022-09-28T04:23:58.202Z,86.14
2022-09-28T04:26:29.144Z,84.96
2022-09-28T04:29:16.288Z,84.50
2022-09-28T04:31:49.793Z,84.48
2022-09-28T04:34:21.136Z,86.69
2022-09-28T04:36:51.509Z,84.14
2022-09-28T04:39:21.670Z,91.12
2022-09-28T04:41:51.349Z,90.16
2022-09-28T04:44:23.153Z,88.61
2022-09-28T04:46:56.150Z,87.16
2022-09-28T04:49:25.813Z,86.56
2022-09-28T04:51:55.295Z,84.36
2022-09-28T04:54:24.954Z,85.47
2022-09-28T04:56:54.314Z,87.01
2022-09-28T04:59:23.876Z,82.36
2022-09-28T05:01:55.046Z,84.54
2022-09-28T05:04:26.264Z,83.70
2022-09-28T05:06:55.714Z,86.46
2022-09-28T05:09:25.785Z,84.02
2022-09-28T05:11:55.185Z,80.54
2022-09-28T05:14:24.862Z,83.15
2022-09-28T05:16:56.203Z,88.75
2022-09-28T05:19:25.798Z,82.85
2022-09-28T05:21:58.083Z,84.21
2022-09-28T05:24:27.579Z,86.42
2022-09-28T05:26:57.162Z,85.73
2022-09-28T05:29:31.341Z,86.73
2022-09-28T05:32:03.061Z,84.91
2022-09-28T05:34:33.147Z,86.53
2022-09-28T05:37:03.191Z,86.78
2022-09-28T05:39:32.699Z,81.69
2022-09-28T05:42:02.247Z,84.68
2022-09-28T05:44:32.720Z,85.28
2022-09-28T05:47:03.662Z,86.23
2022-09-28T05:49:33.492Z,88.35
2022-09-28T05:52:03.655Z,89.64
2022-09-28T05:54:33.736Z,87.59
2022-09-28T05:57:03.482Z,89.86
2022-09-28T05:59:35.285Z,91.22
2022-09-28T06:02:09.036Z,82.16
2022-09-28T06:04:39.084Z,84.80
2022-09-28T06:07:08.628Z,85.20
2022-09-28T06:09:38.558Z,90.67
2022-09-28T06:12:08.592Z,86.25
2022-09-28T06:14:39.101Z,86.94
2022-09-28T06:17:10.390Z,87.29
2022-09-28T06:19:39.691Z,85.95
2022-09-28T06:22:09.521Z,81.23
2022-09-28T06:24:39.014Z,83.06
2022-09-28T06:27:08.379Z,87.50
2022-09-28T06:29:37.483Z,86.92
2022-09-28T06:32:09.245Z,86.40
2022-09-28T06:34:38.823Z,82.77
2022-09-28T06:37:08.845Z,83.95
2022-09-28T06:39:38.355Z,86.94
2022-09-28T06:42:08.427Z,87.29
2022-09-28T06:44:38.019Z,88.51
2022-09-28T06:47:09.698Z,88.85
2022-09-28T06:49:39.618Z,83.96
2022-09-28T06:52:09.094Z,86.08
2022-09-28T06:54:39.495Z,82.65
2022-09-28T06:57:08.864Z,87.15
2022-09-28T06:59:42.802Z,88.43
2022-09-28T07:02:15.038Z,84.32
2022-09-28T07:04:44.876Z,85.71
2022-09-28T07:07:14.912Z,84.44
2022-09-28T07:09:49.400Z,81.35
2022-09-28T07:12:20.715Z,86.98
2022-09-28T07:14:50.561Z,82.08
2022-09-28T07:17:21.477Z,87.50
2022-09-28T07:19:52.861Z,84.48
2022-09-28T07:22:34.896Z,87.19
2022-09-28T07:25:10.129Z,84.89
2022-09-28T07:27:39.710Z,82.61
2022-09-28T07:30:10.198Z,90.49
2022-09-28T07:32:41.420Z,82.76
2022-09-28T07:35:10.863Z,88.54
2022-09-28T07:37:40.146Z,90.79
2022-09-28T07:40:28.938Z,90.88
2022-09-28T07:42:58.443Z,85.01
2022-09-28T07:45:30.609Z,84.63
2022-09-28T07:48:01.536Z,93.00
2022-09-28T07:50:30.901Z,86.91
2022-09-28T07:53:00.630Z,88.56
2022-09-28T07:55:29.845Z,83.47
2022-09-28T07:58:01.856Z,87.34
2022-09-28T08:00:34.318Z,80.82
2022-09-28T08:03:05.203Z,89.13
2022-09-28T08:05:36.120Z,82.29
2022-09-28T08:08:05.395Z,81.25
2022-09-28T08:10:34.949Z,84.59
2022-09-28T08:13:06.474Z,87.32
2022-09-28T08:15:38.399Z,92.67
2022-09-28T08:18:10.567Z,87.11
2022-09-28T08:20:57.579Z,94.16
2022-09-28T08:23:27.403Z,84.31
2022-09-28T08:25:56.828Z,86.25
2022-09-28T08:28:26.699Z,91.44
2022-09-28T08:30:56.619Z,86.43
2022-09-28T08:33:27.805Z,80.78
2022-09-28T08:35:58.495Z,83.20
2022-09-28T08:38:29.091Z,81.60
2022-09-28T08:41:06.546Z,88.10
2022-09-28T08:44:05.286Z,82.49
2022-09-28T08:46:37.297Z,84.77
2022-09-28T08:49:24.576Z,84.59
2022-09-28T08:51:58.811Z,84.35
2022-09-28T08:54:34.926Z,86.05
2022-09-28T08:57:08.829Z,86.34
2022-09-28T08:59:46.619Z,86.55
2022-09-28T09:02:19.934Z,87.88
2022-09-28T09:04:51.780Z,87.82
2022-09-28T09:07:47.806Z,88.00
2022-09-28T09:10:33.985Z,93.72
2022-09-28T09:13:24.199Z,87.38
2022-09-28T09:16:01.627Z,88.44
2022-09-28T09:18:37.939Z,90.50
2022-09-28T09:21:14.084Z,86.58
2022-09-28T09:23:54.229Z,88.75
2022-09-28T09:26:35.350Z,90.61
2022-09-28T09:29:23.050Z,94.13
2022-09-28T09:32:11.852Z,85.05
2022-09-28T09:34:52.965Z,88.79
2022-09-28T09:37:44.437Z,89.83
2022-09-28T09:40:30.523Z,88.15
2022-09-28T09:43:12.638Z,89.97
2022-09-28T09:45:53.208Z,88.71
2022-09-28T09:48:27.069Z,89.41
2022-09-28T09:51:00.233Z,88.59
2022-09-28T09:53:37.755Z,89.85
2022-09-28T09:56:15.387Z,90.13
2022-09-28T09:58:48.836Z,89.59
2022-09-28T10:01:21.886Z,95.81
2022-09-28T10:03:53.172Z,90.10
2022-09-28T10:06:27.613Z,91.78
2022-09-28T10:09:04.913Z,89.55
2022-09-28T10:11:37.158Z,93.34
2022-09-28T10:14:08.257Z,95.28
2022-09-28T10:16:37.988Z,92.83
2022-09-28T10:19:09.667Z,96.80
2022-09-28T10:21:41.290Z,95.81
2022-09-28T10:24:19.198Z,93.03
2022-09-28T10:26:51.731Z,90.69
2022-09-28T10:29:23.538Z,91.85
2022-09-28T10:31:53.628Z,94.41
2022-09-28T10:34:28.552Z,88.84
2022-09-28T10:37:00.704Z,89.80
2022-09-28T10:39:34.371Z,87.93
2022-09-28T10:42:06.952Z,89.46
2022-09-28T10:44:44.963Z,87.71
2022-09-28T10:47:18.269Z,87.49
2022-09-28T10:49:49.499Z,90.69
2022-09-28T10:52:40.095Z,87.40
2022-09-28T10:55:39.061Z,91.04
2022-09-28T10:58:28.007Z,91.72
2022-09-28T11:01:05.291Z,89.34
2022-09-28T11:03:34.861Z,89.63
2022-09-28T11:06:06.669Z,89.64
2022-09-28T11:08:38.963Z,89.13
2022-09-28T11:11:12.559Z,89.65
2022-09-28T11:13:44.666Z,87.96
2022-09-28T11:16:26.379Z,90.51
2022-09-28T11:18:55.696Z,90.24
2022-09-28T11:21:27.398Z,89.34
2022-09-28T11:24:08.321Z,88.07
2022-09-28T11:26:43.545Z,87.41
2022-09-28T11:29:22.927Z,87.18
2022-09-28T11:31:53.427Z,90.23
2022-09-28T11:34:36.512Z,97.75
2022-09-28T11:37:39.722Z,88.21
2022-09-28T11:40:21.842Z,88.94
2022-09-28T11:43:00.306Z,89.05
2022-09-28T11:45:42.532Z,87.52
2022-09-28T11:48:15.772Z,88.02
2022-09-28T11:50:50.080Z,92.01
2022-09-28T11:53:24.720Z,90.30
2022-09-28T11:55:58.877Z,84.55
2022-09-28T11:58:34.413Z,88.58
2022-09-28T12:01:07.062Z,85.19
2022-09-28T12:03:42.211Z,89.45
2022-09-28T12:06:16.947Z,87.79
2022-09-28T12:08:52.083Z,83.20
2022-09-28T12:11:25.236Z,82.99
2022-09-28T12:13:58.105Z,83.57
2022-09-28T12:19:22.484Z,83.05
2022-09-28T12:21:53.077Z,81.09
2022-09-28T12:24:26.367Z,85.70
2022-09-28T12:26:58.611Z,88.21
2022-09-28T12:29:33.288Z,86.64
2022-09-28T12:32:09.333Z,85.10
2022-09-28T12:34:38.478Z,89.10
2022-09-28T12:37:25.810Z,85.21
2022-09-28T12:40:08.008Z,86.97
2022-09-28T12:42:49.483Z,82.90
2022-09-28T12:46:10.584Z,77.94
2022-09-28T12:49:24.090Z,78.60
2022-09-28T12:51:49.175Z,79.28
2022-09-28T12:54:44.343Z,77.16
2022-09-28T12:57:37.706Z,80.90
2022-09-28T13:00:10.278Z,83.52
2022-09-28T13:02:57.507Z,75.28
2022-09-28T13:05:46.665Z,81.23
2022-09-28T13:08:19.549Z,79.35
2022-09-28T13:10:53.528Z,83.51
2022-09-28T13:13:34.756Z,83.22
2022-09-28T13:16:09.709Z,83.94
2022-09-28T13:18:45.150Z,78.59
2022-09-28T13:21:24.423Z,84.05
2022-09-28T13:24:08.761Z,80.76
2022-09-28T13:26:47.182Z,85.45
2022-09-28T13:29:19.272Z,82.04
2022-09-28T13:31:50.636Z,84.02
2022-09-28T13:34:22.705Z,83.53
2022-09-28T13:37:12.180Z,84.72
2022-09-28T13:39:52.879Z,87.92
2022-09-28T13:42:50.831Z,85.50
2022-09-28T13:45:40.360Z,82.95
2022-09-28T13:48:17.347Z,85.33
2022-09-28T13:51:06.171Z,87.77
2022-09-28T13:53:45.484Z,87.15
2022-09-28T13:56:27.026Z,87.48
2022-09-28T13:58:59.740Z,83.86
2022-09-28T14:01:31.243Z,87.88
2022-09-28T14:04:15.914Z,85.39
2022-09-28T14:06:49.426Z,84.98
2022-09-28T14:09:42.562Z,85.88
2022-09-28T14:12:31.284Z,84.60
2022-09-28T14:15:00.619Z,86.93
2022-09-28T14:18:00.270Z,86.09
2022-09-28T14:20:31.978Z,89.13
2022-09-28T14:23:29.929Z,89.47
2022-09-28T14:26:28.422Z,88.29
2022-09-28T14:29:09.959Z,87.56
2022-09-28T14:31:43.793Z,88.79
2022-09-28T14:34:34.250Z,88.33
2022-09-28T14:37:22.741Z,88.64
2022-09-28T14:40:09.572Z,87.75
2022-09-28T14:42:40.557Z,86.84
2022-09-28T14:45:38.935Z,89.52
2022-09-28T14:48:20.681Z,86.12
2022-09-28T14:50:50.353Z,87.77
2022-09-28T14:53:22.334Z,89.06
2022-09-28T14:55:52.754Z,86.40
2022-09-28T14:58:26.889Z,88.57
2022-09-28T15:01:01.599Z,86.86
2022-09-28T15:03:33.378Z,86.75
2022-09-28T15:06:02.863Z,89.44
2022-09-28T15:08:39.045Z,87.71
2022-09-28T15:11:12.487Z,90.42
2022-09-28T15:13:44.107Z,88.05
2022-09-28T15:16:15.038Z,86.69
2022-09-28T15:19:09.243Z,91.20
2022-09-28T15:21:42.949Z,91.85
2022-09-28T15:24:43.224Z,91.40
2022-09-28T15:27:19.065Z,95.46
2022-09-28T15:29:59.057Z,90.39
2022-09-28T15:32:29.775Z,92.27
2022-09-28T15:35:00.229Z,91.54
2022-09-28T15:37:36.494Z,93.67
2022-09-28T15:40:15.187Z,92.08
2022-09-28T15:42:45.462Z,92.44
2022-09-28T15:45:37.137Z,93.29
2022-09-28T15:48:27.711Z,91.14
2022-09-28T15:51:05.163Z,89.03
2022-09-28T15:53:35.244Z,90.63
2022-09-28T15:56:10.163Z,91.73
2022-09-28T15:58:40.591Z,92.30
2022-09-28T16:01:36.687Z,93.77
2022-09-28T16:04:36.303Z,94.75
2022-09-28T16:07:21.026Z,93.43
2022-09-28T16:10:02.251Z,90.29
2022-09-28T16:12:41.195Z,92.06
2022-09-28T16:15:18.321Z,95.18
2022-09-28T16:17:52.743Z,93.79
2022-09-28T16:20:29.851Z,93.39
2022-09-28T16:23:05.772Z,90.25
2022-09-28T16:25:37.216Z,91.37
2022-09-28T16:28:07.523Z,90.23
2022-09-28T16:30:36.988Z,90.65
2022-09-28T16:33:27.200Z,93.12
2022-09-28T16:35:56.393Z,96.17
2022-09-28T16:38:25.619Z,92.44
2022-09-28T16:40:55.173Z,91.01
2022-09-28T16:43:28.592Z,92.01
2022-09-28T16:45:58.621Z,94.98
2022-09-28T16:48:31.160Z,90.83
2022-09-28T16:51:00.802Z,91.04
2022-09-28T16:53:47.523Z,89.92
2022-09-28T16:56:16.819Z,91.42
2022-09-28T16:58:49.253Z,90.89
2022-09-28T17:01:19.727Z,94.93
2022-09-28T17:03:51.208Z,97.41
2022-09-28T17:06:22.222Z,98.00
2022-09-28T17:08:51.694Z,93.39
2022-09-28T17:11:24.617Z,96.77
2022-09-28T17:13:56.883Z,96.88
2022-09-28T17:16:49.735Z,97.90
2022-09-28T17:19:22.158Z,94.44
2022-09-28T17:21:51.458Z,94.54
2022-09-28T17:24:21.403Z,94.64
2022-09-28T17:26:52.677Z,93.14
2022-09-28T17:29:22.364Z,93.00
2022-09-28T17:31:52.186Z,91.81
2022-09-28T17:34:23.904Z,96.19
2022-09-28T17:36:53.983Z,93.52
2022-09-28T17:39:25.103Z,92.22
2022-09-28T17:41:54.277Z,92.88
2022-09-28T17:44:23.835Z,94.38
2022-09-28T17:46:54.010Z,95.68
2022-09-28T17:49:24.870Z,95.25
2022-09-28T17:51:54.311Z,98.07
2022-09-28T17:54:25.866Z,99.30
2022-09-28T17:56:55.665Z,98.40
2022-09-28T17:59:26.758Z,95.39
2022-09-28T18:01:58.319Z,96.12
2022-09-28T18:04:51.181Z,98.53
2022-09-28T18:07:21.124Z,98.58
2022-09-28T18:09:56.741Z,99.45
2022-09-28T18:12:29.052Z,96.66
2022-09-28T18:14:58.478Z,97.74
2022-09-28T18:17:28.155Z,99.93
2022-09-28T18:19:58.769Z,97.34
2022-09-28T18:22:28.166Z,94.53
2022-09-28T18:24:57.974Z,95.49
2022-09-28T18:27:28.821Z,95.93
2022-09-28T18:29:58.280Z,93.63
2022-09-28T18:32:28.022Z,91.80
2022-09-28T18:34:58.890Z,91.86
2022-09-28T18:37:28.176Z,97.64
2022-09-28T18:39:57.492Z,95.18
2022-09-28T18:42:26.953Z,93.77
2022-09-28T18:44:56.126Z,95.45
2022-09-28T18:47:25.699Z,94.50
2022-09-28T18:49:54.949Z,96.50
2022-09-28T18:52:26.182Z,100.00
2022-09-28T18:54:55.837Z,97.18
2022-09-28T18:57:25.148Z,97.00
2022-09-28T18:59:54.747Z,95.33
2022-09-28T19:02:24.132Z,94.89
2022-09-28T19:04:53.557Z,95.51
2022-09-28T19:07:24.589Z,93.30
2022-09-28T19:09:54.183Z,96.92
2022-09-28T19:12:23.936Z,100.00
2022-09-28T19:14:53.141Z,100.00
2022-09-28T19:17:22.445Z,98.35
2022-09-28T19:19:52.162Z,100.00
2022-09-28T19:22:21.646Z,99.78
2022-09-28T19:24:52.529Z,100.00
2022-09-28T19:27:22.438Z,99.79
2022-09-28T19:29:51.872Z,100.00
2022-09-28T19:32:21.314Z,99.31
2022-09-28T19:34:50.705Z,100.00
2022-09-28T19:37:20.047Z,100.00
2022-09-28T19:39:49.550Z,98.80
2022-09-28T19:42:21.290Z,95.08
2022-09-28T19:44:51.169Z,97.03
2022-09-28T19:47:28.676Z,98.54
2022-09-28T19:49:58.023Z,100.00
2022-09-28T19:52:27.081Z,100.00
2022-09-28T19:54:56.952Z,99.12
2022-09-28T19:57:29.685Z,100.00
2022-09-28T20:00:03.301Z,97.25
2022-09-28T20:02:34.929Z,100.00
2022-09-28T20:05:04.457Z,100.00
2022-09-28T20:07:34.922Z,100.00
2022-09-28T20:10:04.224Z,97.95
2022-09-28T20:12:35.162Z,100.00
2022-09-28T20:15:05.249Z,100.00
2022-09-28T20:17:34.848Z,98.21
2022-09-28T20:20:04.835Z,96.21
2022-09-28T20:22:34.498Z,97.87
2022-09-28T20:25:04.178Z,99.91
2022-09-28T20:27:35.354Z,100.00
2022-09-28T20:30:04.923Z,100.00
2022-09-28T20:32:35.245Z,96.57
2022-09-28T20:35:05.033Z,99.96
2022-09-28T20:37:34.694Z,96.63
2022-09-28T20:40:04.180Z,94.16
2022-09-28T20:42:34.817Z,97.66
2022-09-28T20:45:04.154Z,97.84
2022-09-28T20:47:33.755Z,98.76
2022-09-28T20:50:03.346Z,100.00
2022-09-28T20:52:32.500Z,95.99
2022-09-28T20:55:01.516Z,98.30
2022-09-28T20:57:31.406Z,95.75
2022-09-28T21:00:03.094Z,98.00
2022-09-28T21:02:33.636Z,95.44
2022-09-28T21:05:03.108Z,95.53
2022-09-28T21:07:32.814Z,92.64
2022-09-28T21:10:02.365Z,96.97
2022-09-28T21:12:31.890Z,100.00
2022-09-28T21:15:05.914Z,100.00
2022-09-28T21:17:35.563Z,100.00
2022-09-28T21:20:05.334Z,96.43
2022-09-28T21:22:35.906Z,92.76
2022-09-28T21:25:05.999Z,100.00
2022-09-28T21:27:35.582Z,99.55
2022-09-28T21:30:09.269Z,99.10
2022-09-28T21:32:40.213Z,100.00
2022-09-28T21:35:11.329Z,100.00
2022-09-28T21:37:41.324Z,100.00
2022-09-28T21:40:11.941Z,100.00
2022-09-28T21:42:42.986Z,96.59
2022-09-28T21:45:14.255Z,97.07
2022-09-28T21:47:47.748Z,99.90
2022-09-28T21:50:17.043Z,99.59
2022-09-28T21:52:46.343Z,98.30
2022-09-28T21:55:15.815Z,98.51
2022-09-28T21:57:46.494Z,100.00
2022-09-28T22:00:18.974Z,98.72
2022-09-28T22:02:48.999Z,100.00
2022-09-28T22:05:19.280Z,95.63
2022-09-28T22:07:48.479Z,97.05
2022-09-28T22:10:18.098Z,93.08
2022-09-28T22:12:48.219Z,96.34
2022-09-28T22:15:19.322Z,100.00
2022-09-28T22:17:48.659Z,99.25
2022-09-28T22:20:18.147Z,98.01
2022-09-28T22:22:50.915Z,100.00
2022-09-28T22:25:21.586Z,97.97
2022-09-28T22:27:50.797Z,96.75
2022-09-28T22:30:21.929Z,95.48
2022-09-28T22:32:51.214Z,100.00
2022-09-28T22:35:20.691Z,100.00
2022-09-28T22:37:50.081Z,93.91
2022-09-28T22:40:20.229Z,95.85
2022-09-28T22:42:50.266Z,96.09
2022-09-28T22:45:20.960Z,100.00
2022-09-28T22:47:51.435Z,100.00
2022-09-28T22:50:20.878Z,100.00
2022-09-28T22:52:52.078Z,96.90
2022-09-28T22:55:22.129Z,99.22
2022-09-28T22:57:51.670Z,100.00
2022-09-28T23:00:23.666Z,95.48
2022-09-28T23:02:53.472Z,99.90
2022-09-28T23:05:23.015Z,99.72
2022-09-28T23:07:52.625Z,97.52
2022-09-28T23:10:21.955Z,97.92
2022-09-28T23:12:51.280Z,100.00
2022-09-28T23:15:22.715Z,98.51
2022-09-28T23:17:53.010Z,100.00
2022-09-28T23:20:22.624Z,100.00
2022-09-28T23:22:52.311Z,100.00
2022-09-28T23:25:21.807Z,98.80
2022-09-28T23:27:51.878Z,96.45
2022-09-28T23:30:24.922Z,99.97
2022-09-28T23:32:54.419Z,99.68
2022-09-28T23:35:23.889Z,100.00
2022-09-28T23:37:53.345Z,99.66
2022-09-28T23:40:23.008Z,97.01
2022-09-28T23:42:52.996Z,100.00
2022-09-28T23:45:25.294Z,98.96
2022-09-28T23:47:55.039Z,99.24
2022-09-28T23:50:24.737Z,100.00
2022-09-28T23:52:54.165Z,99.07
2022-09-28T23:55:23.525Z,100.00
2022-09-28T23:57:55.697Z,100.00
